sensor_id;sensor_type;location;lat;lon;timestamp;P1;durP1;ratioP1;P2;durP2;ratioP2
20122;SDS011;10222;50.848;4.336;2022-10-16T00:00:34;1.97;;;0.50;;
20122;SDS011;10222;50.848;4.336;2022-10-16T00:03:01;2.83;;;0.47;;
20122;SDS011;10222;50.848;4.336;2022-10-16T00:05:27;0.70;;;0.50;;
20122;SDS011;10222;50.848;4.336;2022-10-16T00:07:53;0.97;;;0.50;;
20122;SDS011;10222;50.848;4.336;2022-10-16T00:10:19;0.77;;;0.50;;
20122;SDS011;10222;50.848;4.336;2022-10-16T00:12:45;0.50;;;0.50;;
20122;SDS011;10222;50.848;4.336;2022-10-16T00:15:11;0.50;;;0.30;;
20122;SDS011;10222;50.848;4.336;2022-10-16T00:17:37;0.40;;;0.40;;
20122;SDS011;10222;50.848;4.336;2022-10-16T00:20:03;1.07;;;0.47;;
20122;SDS011;10222;50.848;4.336;2022-10-16T00:22:29;0.60;;;0.50;;
20122;SDS011;10222;50.848;4.336;2022-10-16T00:24:55;1.20;;;0.60;;
20122;SDS011;10222;50.848;4.336;2022-10-16T00:27:21;1.13;;;0.73;;
20122;SDS011;10222;50.848;4.336;2022-10-16T00:29:50;0.40;;;0.40;;
20122;SDS011;10222;50.848;4.336;2022-10-16T00:32:17;0.77;;;0.60;;
20122;SDS011;10222;50.848;4.336;2022-10-16T00:34:43;1.27;;;0.40;;
20122;SDS011;10222;50.848;4.336;2022-10-16T00:37:09;0.83;;;0.50;;
20122;SDS011;10222;50.848;4.336;2022-10-16T00:39:35;1.30;;;0.47;;
20122;SDS011;10222;50.848;4.336;2022-10-16T00:42:01;0.80;;;0.60;;
20122;SDS011;10222;50.848;4.336;2022-10-16T00:47:18;1.30;;;0.63;;
20122;SDS011;10222;50.848;4.336;2022-10-16T00:49:46;1.10;;;0.40;;
20122;SDS011;10222;50.848;4.336;2022-10-16T00:52:13;1.67;;;0.50;;
20122;SDS011;10222;50.848;4.336;2022-10-16T00:54:40;0.47;;;0.40;;
20122;SDS011;10222;50.848;4.336;2022-10-16T00:57:06;0.47;;;0.40;;
20122;SDS011;10222;50.848;4.336;2022-10-16T00:59:36;2.40;;;0.60;;
20122;SDS011;10222;50.848;4.336;2022-10-16T01:02:04;0.50;;;0.50;;
20122;SDS011;10222;50.848;4.336;2022-10-16T01:04:32;1.17;;;0.73;;
20122;SDS011;10222;50.848;4.336;2022-10-16T01:09:27;0.90;;;0.40;;
20122;SDS011;10222;50.848;4.336;2022-10-16T01:20:00;1.60;;;0.50;;
20122;SDS011;10222;50.848;4.336;2022-10-16T01:22:33;1.77;;;0.90;;
20122;SDS011;10222;50.848;4.336;2022-10-16T01:24:59;1.60;;;0.60;;
20122;SDS011;10222;50.848;4.336;2022-10-16T01:27:30;1.43;;;0.70;;
20122;SDS011;10222;50.848;4.336;2022-10-16T01:30:05;1.47;;;0.53;;
20122;SDS011;10222;50.848;4.336;2022-10-16T01:32:36;4.43;;;0.97;;
20122;SDS011;10222;50.848;4.336;2022-10-16T01:35:04;0.80;;;0.57;;
20122;SDS011;10222;50.848;4.336;2022-10-16T01:37:35;0.93;;;0.70;;
20122;SDS011;10222;50.848;4.336;2022-10-16T01:40:04;0.53;;;0.43;;
20122;SDS011;10222;50.848;4.336;2022-10-16T01:42:34;1.23;;;0.67;;
20122;SDS011;10222;50.848;4.336;2022-10-16T01:45:00;0.63;;;0.50;;
20122;SDS011;10222;50.848;4.336;2022-10-16T01:47:28;0.53;;;0.50;;
20122;SDS011;10222;50.848;4.336;2022-10-16T01:49:56;1.33;;;0.70;;
20122;SDS011;10222;50.848;4.336;2022-10-16T01:52:23;0.60;;;0.47;;
20122;SDS011;10222;50.848;4.336;2022-10-16T01:54:52;1.67;;;0.70;;
20122;SDS011;10222;50.848;4.336;2022-10-16T01:57:20;2.73;;;0.70;;
20122;SDS011;10222;50.848;4.336;2022-10-16T01:59:48;1.60;;;0.50;;
20122;SDS011;10222;50.848;4.336;2022-10-16T02:02:15;1.23;;;0.60;;
20122;SDS011;10222;50.848;4.336;2022-10-16T02:04:44;0.40;;;0.30;;
20122;SDS011;10222;50.848;4.336;2022-10-16T02:07:11;0.60;;;0.43;;
20122;SDS011;10222;50.848;4.336;2022-10-16T02:09:37;0.77;;;0.60;;
20122;SDS011;10222;50.848;4.336;2022-10-16T02:14:59;0.73;;;0.50;;
20122;SDS011;10222;50.848;4.336;2022-10-16T02:17:25;1.67;;;0.57;;
20122;SDS011;10222;50.848;4.336;2022-10-16T02:19:52;0.90;;;0.60;;
20122;SDS011;10222;50.848;4.336;2022-10-16T02:23:01;1.13;;;0.60;;
20122;SDS011;10222;50.848;4.336;2022-10-16T02:27:46;0.37;;;0.37;;
20122;SDS011;10222;50.848;4.336;2022-10-16T02:30:20;1.23;;;0.80;;
20122;SDS011;10222;50.848;4.336;2022-10-16T02:32:47;0.80;;;0.50;;
20122;SDS011;10222;50.848;4.336;2022-10-16T02:35:18;0.90;;;0.60;;
20122;SDS011;10222;50.848;4.336;2022-10-16T02:37:46;0.60;;;0.50;;
20122;SDS011;10222;50.848;4.336;2022-10-16T02:40:12;1.50;;;0.73;;
20122;SDS011;10222;50.848;4.336;2022-10-16T02:42:39;1.20;;;0.60;;
20122;SDS011;10222;50.848;4.336;2022-10-16T02:45:07;1.53;;;0.83;;
20122;SDS011;10222;50.848;4.336;2022-10-16T02:47:33;0.77;;;0.70;;
20122;SDS011;10222;50.848;4.336;2022-10-16T02:49:59;0.60;;;0.50;;
20122;SDS011;10222;50.848;4.336;2022-10-16T02:52:25;0.67;;;0.60;;
20122;SDS011;10222;50.848;4.336;2022-10-16T02:54:51;1.73;;;0.50;;
20122;SDS011;10222;50.848;4.336;2022-10-16T02:57:17;0.83;;;0.60;;
20122;SDS011;10222;50.848;4.336;2022-10-16T02:59:43;0.97;;;0.60;;
20122;SDS011;10222;50.848;4.336;2022-10-16T03:02:09;1.77;;;0.80;;
20122;SDS011;10222;50.848;4.336;2022-10-16T03:04:35;1.13;;;0.67;;
20122;SDS011;10222;50.848;4.336;2022-10-16T03:07:01;1.70;;;1.10;;
20122;SDS011;10222;50.848;4.336;2022-10-16T03:09:27;1.23;;;0.70;;
20122;SDS011;10222;50.848;4.336;2022-10-16T03:11:53;1.33;;;0.77;;
20122;SDS011;10222;50.848;4.336;2022-10-16T03:14:19;1.00;;;0.50;;
20122;SDS011;10222;50.848;4.336;2022-10-16T03:16:45;1.10;;;0.80;;
20122;SDS011;10222;50.848;4.336;2022-10-16T03:19:11;0.93;;;0.70;;
20122;SDS011;10222;50.848;4.336;2022-10-16T03:21:37;0.53;;;0.50;;
20122;SDS011;10222;50.848;4.336;2022-10-16T03:24:03;0.80;;;0.53;;
20122;SDS011;10222;50.848;4.336;2022-10-16T03:26:29;1.97;;;0.90;;
20122;SDS011;10222;50.848;4.336;2022-10-16T03:28:55;1.77;;;0.80;;
20122;SDS011;10222;50.848;4.336;2022-10-16T03:31:21;5.60;;;0.70;;
20122;SDS011;10222;50.848;4.336;2022-10-16T03:33:47;0.97;;;0.83;;
20122;SDS011;10222;50.848;4.336;2022-10-16T03:36:13;2.17;;;0.80;;
20122;SDS011;10222;50.848;4.336;2022-10-16T03:38:39;1.60;;;0.70;;
20122;SDS011;10222;50.848;4.336;2022-10-16T03:41:05;0.80;;;0.70;;
20122;SDS011;10222;50.848;4.336;2022-10-16T03:43:32;0.80;;;0.67;;
20122;SDS011;10222;50.848;4.336;2022-10-16T03:45:58;1.23;;;0.70;;
20122;SDS011;10222;50.848;4.336;2022-10-16T03:48:24;2.33;;;0.83;;
20122;SDS011;10222;50.848;4.336;2022-10-16T03:50:50;1.47;;;0.70;;
20122;SDS011;10222;50.848;4.336;2022-10-16T03:53:16;3.20;;;0.70;;
20122;SDS011;10222;50.848;4.336;2022-10-16T03:55:42;1.10;;;0.90;;
20122;SDS011;10222;50.848;4.336;2022-10-16T03:58:09;1.40;;;0.97;;
20122;SDS011;10222;50.848;4.336;2022-10-16T04:00:35;0.83;;;0.60;;
20122;SDS011;10222;50.848;4.336;2022-10-16T04:03:01;1.80;;;0.90;;
20122;SDS011;10222;50.848;4.336;2022-10-16T04:05:27;0.90;;;0.70;;
20122;SDS011;10222;50.848;4.336;2022-10-16T04:07:53;0.60;;;0.60;;
20122;SDS011;10222;50.848;4.336;2022-10-16T04:10:20;1.63;;;0.50;;
20122;SDS011;10222;50.848;4.336;2022-10-16T04:12:46;0.90;;;0.60;;
20122;SDS011;10222;50.848;4.336;2022-10-16T04:15:12;2.43;;;0.93;;
20122;SDS011;10222;50.848;4.336;2022-10-16T04:17:38;2.40;;;0.73;;
20122;SDS011;10222;50.848;4.336;2022-10-16T04:20:04;0.60;;;0.60;;
20122;SDS011;10222;50.848;4.336;2022-10-16T04:22:31;1.70;;;0.80;;
20122;SDS011;10222;50.848;4.336;2022-10-16T04:24:57;2.03;;;1.47;;
20122;SDS011;10222;50.848;4.336;2022-10-16T04:27:23;1.33;;;0.77;;
20122;SDS011;10222;50.848;4.336;2022-10-16T04:29:49;1.10;;;0.70;;
20122;SDS011;10222;50.848;4.336;2022-10-16T04:32:15;3.10;;;1.53;;
20122;SDS011;10222;50.848;4.336;2022-10-16T04:34:41;0.87;;;0.83;;
20122;SDS011;10222;50.848;4.336;2022-10-16T04:37:07;0.90;;;0.70;;
20122;SDS011;10222;50.848;4.336;2022-10-16T04:39:33;0.87;;;0.80;;
20122;SDS011;10222;50.848;4.336;2022-10-16T04:41:59;0.97;;;0.60;;
20122;SDS011;10222;50.848;4.336;2022-10-16T04:44:25;0.77;;;0.70;;
20122;SDS011;10222;50.848;4.336;2022-10-16T04:46:51;0.80;;;0.80;;
20122;SDS011;10222;50.848;4.336;2022-10-16T04:49:17;1.07;;;0.73;;
20122;SDS011;10222;50.848;4.336;2022-10-16T04:51:43;0.80;;;0.70;;
20122;SDS011;10222;50.848;4.336;2022-10-16T04:54:09;1.47;;;0.80;;
20122;SDS011;10222;50.848;4.336;2022-10-16T04:56:35;0.87;;;0.73;;
20122;SDS011;10222;50.848;4.336;2022-10-16T04:59:08;1.27;;;0.63;;
20122;SDS011;10222;50.848;4.336;2022-10-16T05:01:34;1.23;;;0.87;;
20122;SDS011;10222;50.848;4.336;2022-10-16T05:04:00;1.77;;;0.77;;
20122;SDS011;10222;50.848;4.336;2022-10-16T05:06:26;0.63;;;0.60;;
20122;SDS011;10222;50.848;4.336;2022-10-16T05:08:52;0.63;;;0.60;;
20122;SDS011;10222;50.848;4.336;2022-10-16T05:11:18;1.93;;;0.83;;
20122;SDS011;10222;50.848;4.336;2022-10-16T05:13:44;1.80;;;0.80;;
20122;SDS011;10222;50.848;4.336;2022-10-16T05:16:10;1.70;;;0.90;;
20122;SDS011;10222;50.848;4.336;2022-10-16T05:18:36;1.07;;;0.70;;
20122;SDS011;10222;50.848;4.336;2022-10-16T05:21:02;2.40;;;0.90;;
20122;SDS011;10222;50.848;4.336;2022-10-16T05:23:29;1.37;;;0.70;;
20122;SDS011;10222;50.848;4.336;2022-10-16T05:25:55;2.53;;;0.87;;
20122;SDS011;10222;50.848;4.336;2022-10-16T05:28:23;2.33;;;1.30;;
20122;SDS011;10222;50.848;4.336;2022-10-16T05:30:49;2.67;;;1.07;;
20122;SDS011;10222;50.848;4.336;2022-10-16T05:33:15;3.20;;;1.20;;
20122;SDS011;10222;50.848;4.336;2022-10-16T05:35:41;0.90;;;0.80;;
20122;SDS011;10222;50.848;4.336;2022-10-16T05:38:07;1.30;;;1.00;;
20122;SDS011;10222;50.848;4.336;2022-10-16T05:40:33;2.90;;;1.20;;
20122;SDS011;10222;50.848;4.336;2022-10-16T05:43:00;0.90;;;0.80;;
20122;SDS011;10222;50.848;4.336;2022-10-16T05:45:26;1.43;;;1.13;;
20122;SDS011;10222;50.848;4.336;2022-10-16T05:47:52;1.47;;;0.80;;
20122;SDS011;10222;50.848;4.336;2022-10-16T05:50:18;1.10;;;0.87;;
20122;SDS011;10222;50.848;4.336;2022-10-16T05:52:44;2.37;;;1.13;;
20122;SDS011;10222;50.848;4.336;2022-10-16T05:55:10;1.23;;;0.87;;
20122;SDS011;10222;50.848;4.336;2022-10-16T05:57:36;2.40;;;1.00;;
20122;SDS011;10222;50.848;4.336;2022-10-16T06:00:03;1.73;;;1.50;;
20122;SDS011;10222;50.848;4.336;2022-10-16T06:02:29;1.83;;;1.40;;
20122;SDS011;10222;50.848;4.336;2022-10-16T06:04:55;1.60;;;1.10;;
20122;SDS011;10222;50.848;4.336;2022-10-16T06:07:21;2.30;;;0.97;;
20122;SDS011;10222;50.848;4.336;2022-10-16T06:09:48;3.67;;;1.10;;
20122;SDS011;10222;50.848;4.336;2022-10-16T06:12:14;1.70;;;1.10;;
20122;SDS011;10222;50.848;4.336;2022-10-16T06:14:40;2.43;;;1.20;;
20122;SDS011;10222;50.848;4.336;2022-10-16T06:17:06;1.83;;;1.30;;
20122;SDS011;10222;50.848;4.336;2022-10-16T06:19:32;1.60;;;1.00;;
20122;SDS011;10222;50.848;4.336;2022-10-16T06:21:58;1.47;;;1.10;;
20122;SDS011;10222;50.848;4.336;2022-10-16T06:24:25;1.93;;;1.20;;
20122;SDS011;10222;50.848;4.336;2022-10-16T06:26:51;3.17;;;1.37;;
20122;SDS011;10222;50.848;4.336;2022-10-16T06:29:17;3.43;;;1.43;;
20122;SDS011;10222;50.848;4.336;2022-10-16T06:31:43;1.20;;;0.90;;
20122;SDS011;10222;50.848;4.336;2022-10-16T06:34:09;1.80;;;0.83;;
20122;SDS011;10222;50.848;4.336;2022-10-16T06:36:36;1.17;;;0.93;;
20122;SDS011;10222;50.848;4.336;2022-10-16T06:39:03;1.17;;;0.90;;
20122;SDS011;10222;50.848;4.336;2022-10-16T06:41:29;1.13;;;1.00;;
20122;SDS011;10222;50.848;4.336;2022-10-16T06:43:55;1.53;;;0.70;;
20122;SDS011;10222;50.848;4.336;2022-10-16T06:46:22;1.47;;;0.90;;
20122;SDS011;10222;50.848;4.336;2022-10-16T06:48:49;1.17;;;0.83;;
20122;SDS011;10222;50.848;4.336;2022-10-16T06:51:16;1.63;;;1.10;;
20122;SDS011;10222;50.848;4.336;2022-10-16T06:53:43;2.43;;;1.30;;
20122;SDS011;10222;50.848;4.336;2022-10-16T06:56:14;1.63;;;1.00;;
20122;SDS011;10222;50.848;4.336;2022-10-16T06:58:41;3.27;;;1.07;;
20122;SDS011;10222;50.848;4.336;2022-10-16T07:01:07;2.23;;;1.40;;
20122;SDS011;10222;50.848;4.336;2022-10-16T07:03:35;3.03;;;1.40;;
20122;SDS011;10222;50.848;4.336;2022-10-16T07:06:03;6.43;;;2.27;;
20122;SDS011;10222;50.848;4.336;2022-10-16T07:08:32;2.60;;;1.10;;
20122;SDS011;10222;50.848;4.336;2022-10-16T07:11:02;1.90;;;1.10;;
20122;SDS011;10222;50.848;4.336;2022-10-16T07:13:28;3.07;;;0.90;;
20122;SDS011;10222;50.848;4.336;2022-10-16T07:15:54;1.27;;;1.07;;
20122;SDS011;10222;50.848;4.336;2022-10-16T07:18:21;2.80;;;1.13;;
20122;SDS011;10222;50.848;4.336;2022-10-16T07:20:51;1.70;;;1.00;;
20122;SDS011;10222;50.848;4.336;2022-10-16T07:23:17;3.77;;;1.30;;
20122;SDS011;10222;50.848;4.336;2022-10-16T07:25:43;1.27;;;0.87;;
20122;SDS011;10222;50.848;4.336;2022-10-16T07:28:09;2.30;;;1.20;;
20122;SDS011;10222;50.848;4.336;2022-10-16T07:30:35;2.97;;;0.70;;
20122;SDS011;10222;50.848;4.336;2022-10-16T07:33:02;2.47;;;0.93;;
20122;SDS011;10222;50.848;4.336;2022-10-16T07:35:28;2.90;;;0.97;;
20122;SDS011;10222;50.848;4.336;2022-10-16T07:37:54;2.43;;;0.93;;
20122;SDS011;10222;50.848;4.336;2022-10-16T07:40:20;1.93;;;1.10;;
20122;SDS011;10222;50.848;4.336;2022-10-16T07:42:47;1.67;;;1.10;;
20122;SDS011;10222;50.848;4.336;2022-10-16T07:45:13;2.03;;;1.10;;
20122;SDS011;10222;50.848;4.336;2022-10-16T07:47:39;3.37;;;1.10;;
20122;SDS011;10222;50.848;4.336;2022-10-16T07:50:05;2.70;;;1.40;;
20122;SDS011;10222;50.848;4.336;2022-10-16T07:52:31;2.47;;;1.50;;
20122;SDS011;10222;50.848;4.336;2022-10-16T07:54:57;2.53;;;1.20;;
20122;SDS011;10222;50.848;4.336;2022-10-16T07:57:23;3.67;;;1.40;;
20122;SDS011;10222;50.848;4.336;2022-10-16T07:59:49;1.40;;;0.93;;
20122;SDS011;10222;50.848;4.336;2022-10-16T08:02:15;1.67;;;1.03;;
20122;SDS011;10222;50.848;4.336;2022-10-16T08:04:41;1.23;;;1.10;;
20122;SDS011;10222;50.848;4.336;2022-10-16T08:07:07;1.30;;;1.03;;
20122;SDS011;10222;50.848;4.336;2022-10-16T08:09:33;1.80;;;1.10;;
20122;SDS011;10222;50.848;4.336;2022-10-16T08:11:59;3.63;;;1.20;;
20122;SDS011;10222;50.848;4.336;2022-10-16T08:14:25;1.57;;;1.00;;
20122;SDS011;10222;50.848;4.336;2022-10-16T08:16:51;1.87;;;1.17;;
20122;SDS011;10222;50.848;4.336;2022-10-16T08:19:18;1.77;;;1.23;;
20122;SDS011;10222;50.848;4.336;2022-10-16T08:21:46;1.07;;;0.80;;
20122;SDS011;10222;50.848;4.336;2022-10-16T08:24:12;2.67;;;0.90;;
20122;SDS011;10222;50.848;4.336;2022-10-16T08:26:39;1.97;;;1.00;;
20122;SDS011;10222;50.848;4.336;2022-10-16T08:29:06;1.80;;;0.80;;
20122;SDS011;10222;50.848;4.336;2022-10-16T08:31:32;1.23;;;0.77;;
20122;SDS011;10222;50.848;4.336;2022-10-16T08:33:58;3.93;;;0.93;;
20122;SDS011;10222;50.848;4.336;2022-10-16T08:36:24;1.27;;;0.90;;
20122;SDS011;10222;50.848;4.336;2022-10-16T08:38:50;1.83;;;0.90;;
20122;SDS011;10222;50.848;4.336;2022-10-16T08:43:58;4.30;;;0.97;;
20122;SDS011;10222;50.848;4.336;2022-10-16T08:46:42;0.97;;;0.67;;
20122;SDS011;10222;50.848;4.336;2022-10-16T08:49:11;4.13;;;1.03;;
20122;SDS011;10222;50.848;4.336;2022-10-16T08:51:38;1.27;;;0.90;;
20122;SDS011;10222;50.848;4.336;2022-10-16T08:56:42;2.17;;;0.70;;
20122;SDS011;10222;50.848;4.336;2022-10-16T08:59:11;1.13;;;0.60;;
20122;SDS011;10222;50.848;4.336;2022-10-16T09:01:46;1.87;;;0.80;;
20122;SDS011;10222;50.848;4.336;2022-10-16T09:12:24;2.30;;;0.60;;
20122;SDS011;10222;50.848;4.336;2022-10-16T09:22:48;0.60;;;0.60;;
20122;SDS011;10222;50.848;4.336;2022-10-16T09:25:17;5.17;;;0.90;;
20122;SDS011;10222;50.848;4.336;2022-10-16T09:27:46;1.67;;;0.80;;
20122;SDS011;10222;50.848;4.336;2022-10-16T09:30:14;2.27;;;0.80;;
20122;SDS011;10222;50.848;4.336;2022-10-16T09:32:40;2.13;;;0.90;;
20122;SDS011;10222;50.848;4.336;2022-10-16T09:35:17;1.80;;;0.90;;
20122;SDS011;10222;50.848;4.336;2022-10-16T09:37:44;0.97;;;0.70;;
20122;SDS011;10222;50.848;4.336;2022-10-16T09:40:24;1.90;;;0.90;;
20122;SDS011;10222;50.848;4.336;2022-10-16T09:42:52;2.50;;;0.50;;
20122;SDS011;10222;50.848;4.336;2022-10-16T09:45:21;1.00;;;0.80;;
20122;SDS011;10222;50.848;4.336;2022-10-16T09:47:49;1.53;;;0.80;;
20122;SDS011;10222;50.848;4.336;2022-10-16T09:50:33;1.40;;;0.70;;
20122;SDS011;10222;50.848;4.336;2022-10-16T09:53:08;2.33;;;0.67;;
20122;SDS011;10222;50.848;4.336;2022-10-16T09:55:36;1.40;;;0.50;;
20122;SDS011;10222;50.848;4.336;2022-10-16T09:58:02;1.53;;;0.63;;
20122;SDS011;10222;50.848;4.336;2022-10-16T10:00:28;1.27;;;0.50;;
20122;SDS011;10222;50.848;4.336;2022-10-16T10:02:54;1.40;;;0.50;;
20122;SDS011;10222;50.848;4.336;2022-10-16T10:05:21;3.53;;;1.13;;
20122;SDS011;10222;50.848;4.336;2022-10-16T10:07:53;0.80;;;0.70;;
20122;SDS011;10222;50.848;4.336;2022-10-16T10:10:24;4.27;;;0.40;;
20122;SDS011;10222;50.848;4.336;2022-10-16T10:12:51;0.57;;;0.40;;
20122;SDS011;10222;50.848;4.336;2022-10-16T10:15:17;1.00;;;0.70;;
20122;SDS011;10222;50.848;4.336;2022-10-16T10:17:47;1.50;;;0.90;;
20122;SDS011;10222;50.848;4.336;2022-10-16T10:22:48;0.87;;;0.60;;
20122;SDS011;10222;50.848;4.336;2022-10-16T10:25:21;2.47;;;0.70;;
20122;SDS011;10222;50.848;4.336;2022-10-16T10:28:06;1.67;;;0.60;;
20122;SDS011;10222;50.848;4.336;2022-10-16T10:40:39;1.33;;;1.17;;
20122;SDS011;10222;50.848;4.336;2022-10-16T10:43:28;1.33;;;0.63;;
20122;SDS011;10222;50.848;4.336;2022-10-16T10:46:07;5.10;;;1.43;;
20122;SDS011;10222;50.848;4.336;2022-10-16T10:51:27;0.90;;;0.43;;
20122;SDS011;10222;50.848;4.336;2022-10-16T11:04:38;1.13;;;0.63;;
20122;SDS011;10222;50.848;4.336;2022-10-16T11:07:12;1.57;;;0.93;;
20122;SDS011;10222;50.848;4.336;2022-10-16T11:09:42;1.37;;;0.70;;
20122;SDS011;10222;50.848;4.336;2022-10-16T11:12:27;0.97;;;0.60;;
20122;SDS011;10222;50.848;4.336;2022-10-16T11:15:11;1.00;;;0.77;;
20122;SDS011;10222;50.848;4.336;2022-10-16T11:17:38;3.43;;;0.80;;
20122;SDS011;10222;50.848;4.336;2022-10-16T11:20:13;1.17;;;0.80;;
20122;SDS011;10222;50.848;4.336;2022-10-16T11:22:42;1.70;;;0.50;;
20122;SDS011;10222;50.848;4.336;2022-10-16T11:27:54;2.57;;;0.60;;
20122;SDS011;10222;50.848;4.336;2022-10-16T11:30:25;1.33;;;0.93;;
20122;SDS011;10222;50.848;4.336;2022-10-16T11:35:59;0.40;;;0.30;;
20122;SDS011;10222;50.848;4.336;2022-10-16T11:38:30;2.50;;;0.67;;
20122;SDS011;10222;50.848;4.336;2022-10-16T11:41:00;2.23;;;0.63;;
20122;SDS011;10222;50.848;4.336;2022-10-16T11:43:32;1.00;;;0.60;;
20122;SDS011;10222;50.848;4.336;2022-10-16T11:46:04;1.33;;;0.40;;
20122;SDS011;10222;50.848;4.336;2022-10-16T11:48:35;2.30;;;0.63;;
20122;SDS011;10222;50.848;4.336;2022-10-16T11:56:21;1.70;;;0.60;;
20122;SDS011;10222;50.848;4.336;2022-10-16T11:58:56;2.17;;;0.70;;
20122;SDS011;10222;50.848;4.336;2022-10-16T12:06:50;3.03;;;0.50;;
20122;SDS011;10222;50.848;4.336;2022-10-16T12:11:48;1.87;;;0.63;;
20122;SDS011;10222;50.848;4.336;2022-10-16T12:16:53;1.60;;;0.50;;
20122;SDS011;10222;50.848;4.336;2022-10-16T12:19:20;2.00;;;0.50;;
20122;SDS011;10222;50.848;4.336;2022-10-16T12:21:46;1.57;;;0.60;;
20122;SDS011;10222;50.848;4.336;2022-10-16T12:26:57;2.37;;;0.70;;
20122;SDS011;10222;50.848;4.336;2022-10-16T12:29:36;0.50;;;0.30;;
20122;SDS011;10222;50.848;4.336;2022-10-16T12:32:21;0.67;;;0.30;;
20122;SDS011;10222;50.848;4.336;2022-10-16T12:34:48;0.90;;;0.60;;
20122;SDS011;10222;50.848;4.336;2022-10-16T12:37:19;2.13;;;0.70;;
20122;SDS011;10222;50.848;4.336;2022-10-16T12:39:47;1.80;;;0.53;;
20122;SDS011;10222;50.848;4.336;2022-10-16T12:44:52;1.83;;;0.63;;
20122;SDS011;10222;50.848;4.336;2022-10-16T12:49:56;1.43;;;0.90;;
20122;SDS011;10222;50.848;4.336;2022-10-16T12:54:57;2.17;;;0.77;;
20122;SDS011;10222;50.848;4.336;2022-10-16T13:13:21;2.70;;;0.60;;
20122;SDS011;10222;50.848;4.336;2022-10-16T13:15:58;2.77;;;1.40;;
20122;SDS011;10222;50.848;4.336;2022-10-16T13:23:27;2.33;;;1.17;;
20122;SDS011;10222;50.848;4.336;2022-10-16T13:28:22;1.77;;;0.73;;
20122;SDS011;10222;50.848;4.336;2022-10-16T13:30:54;2.53;;;1.07;;
20122;SDS011;10222;50.848;4.336;2022-10-16T13:33:40;5.47;;;2.00;;
20122;SDS011;10222;50.848;4.336;2022-10-16T13:36:17;2.13;;;0.83;;
20122;SDS011;10222;50.848;4.336;2022-10-16T13:38:44;3.10;;;0.67;;
20122;SDS011;10222;50.848;4.336;2022-10-16T13:41:17;2.07;;;0.70;;
20122;SDS011;10222;50.848;4.336;2022-10-16T13:43:45;4.40;;;1.47;;
20122;SDS011;10222;50.848;4.336;2022-10-16T13:46:18;2.47;;;1.40;;
20122;SDS011;10222;50.848;4.336;2022-10-16T13:48:55;3.10;;;1.10;;
20122;SDS011;10222;50.848;4.336;2022-10-16T13:51:22;2.07;;;1.30;;
20122;SDS011;10222;50.848;4.336;2022-10-16T13:53:48;2.53;;;1.40;;
20122;SDS011;10222;50.848;4.336;2022-10-16T13:56:21;1.63;;;0.77;;
20122;SDS011;10222;50.848;4.336;2022-10-16T13:58:58;3.40;;;1.20;;
20122;SDS011;10222;50.848;4.336;2022-10-16T14:04:20;3.90;;;1.80;;
20122;SDS011;10222;50.848;4.336;2022-10-16T14:06:48;2.10;;;1.40;;
20122;SDS011;10222;50.848;4.336;2022-10-16T14:11:51;2.57;;;1.07;;
20122;SDS011;10222;50.848;4.336;2022-10-16T14:14:19;6.30;;;1.67;;
20122;SDS011;10222;50.848;4.336;2022-10-16T14:16:46;5.07;;;1.67;;
20122;SDS011;10222;50.848;4.336;2022-10-16T14:19:14;6.37;;;2.60;;
20122;SDS011;10222;50.848;4.336;2022-10-16T14:21:43;7.37;;;3.00;;
20122;SDS011;10222;50.848;4.336;2022-10-16T14:24:13;5.77;;;2.40;;
20122;SDS011;10222;50.848;4.336;2022-10-16T14:26:43;4.33;;;2.47;;
20122;SDS011;10222;50.848;4.336;2022-10-16T14:29:13;3.83;;;1.73;;
20122;SDS011;10222;50.848;4.336;2022-10-16T14:31:40;4.93;;;1.87;;
20122;SDS011;10222;50.848;4.336;2022-10-16T14:37:21;4.73;;;2.10;;
20122;SDS011;10222;50.848;4.336;2022-10-16T14:39:50;5.87;;;2.60;;
20122;SDS011;10222;50.848;4.336;2022-10-16T14:42:16;3.10;;;1.90;;
20122;SDS011;10222;50.848;4.336;2022-10-16T14:44:44;7.20;;;2.53;;
20122;SDS011;10222;50.848;4.336;2022-10-16T14:47:18;4.17;;;2.20;;
20122;SDS011;10222;50.848;4.336;2022-10-16T14:49:49;3.67;;;2.10;;
20122;SDS011;10222;50.848;4.336;2022-10-16T14:52:15;6.43;;;2.60;;
20122;SDS011;10222;50.848;4.336;2022-10-16T14:54:41;6.57;;;2.37;;
20122;SDS011;10222;50.848;4.336;2022-10-16T15:00:03;4.27;;;1.93;;
20122;SDS011;10222;50.848;4.336;2022-10-16T15:02:33;3.40;;;1.80;;
20122;SDS011;10222;50.848;4.336;2022-10-16T15:07:44;4.47;;;1.80;;
20122;SDS011;10222;50.848;4.336;2022-10-16T15:10:11;3.73;;;1.70;;
20122;SDS011;10222;50.848;4.336;2022-10-16T15:12:38;2.97;;;1.63;;
20122;SDS011;10222;50.848;4.336;2022-10-16T15:17:48;2.57;;;1.07;;
20122;SDS011;10222;50.848;4.336;2022-10-16T15:20:17;2.93;;;1.20;;
20122;SDS011;10222;50.848;4.336;2022-10-16T15:22:43;4.10;;;2.27;;
20122;SDS011;10222;50.848;4.336;2022-10-16T15:25:25;4.77;;;2.27;;
20122;SDS011;10222;50.848;4.336;2022-10-16T15:27:53;4.07;;;1.90;;
20122;SDS011;10222;50.848;4.336;2022-10-16T15:30:19;6.80;;;2.33;;
20122;SDS011;10222;50.848;4.336;2022-10-16T15:32:45;4.37;;;1.83;;
20122;SDS011;10222;50.848;4.336;2022-10-16T15:35:11;3.33;;;1.97;;
20122;SDS011;10222;50.848;4.336;2022-10-16T15:37:37;5.23;;;1.73;;
20122;SDS011;10222;50.848;4.336;2022-10-16T15:40:03;5.87;;;1.87;;
20122;SDS011;10222;50.848;4.336;2022-10-16T15:42:29;3.93;;;1.47;;
20122;SDS011;10222;50.848;4.336;2022-10-16T15:44:55;0.87;;;0.50;;
20122;SDS011;10222;50.848;4.336;2022-10-16T15:47:21;1.47;;;0.80;;
20122;SDS011;10222;50.848;4.336;2022-10-16T15:49:47;1.40;;;0.77;;
20122;SDS011;10222;50.848;4.336;2022-10-16T15:52:13;1.40;;;0.60;;
20122;SDS011;10222;50.848;4.336;2022-10-16T15:54:39;1.70;;;1.00;;
20122;SDS011;10222;50.848;4.336;2022-10-16T15:57:06;2.17;;;1.00;;
20122;SDS011;10222;50.848;4.336;2022-10-16T15:59:32;1.53;;;0.60;;
20122;SDS011;10222;50.848;4.336;2022-10-16T16:01:58;2.27;;;0.70;;
20122;SDS011;10222;50.848;4.336;2022-10-16T16:04:24;1.60;;;0.90;;
20122;SDS011;10222;50.848;4.336;2022-10-16T16:06:51;2.20;;;0.80;;
20122;SDS011;10222;50.848;4.336;2022-10-16T16:09:17;1.27;;;0.60;;
20122;SDS011;10222;50.848;4.336;2022-10-16T16:11:43;4.20;;;1.47;;
20122;SDS011;10222;50.848;4.336;2022-10-16T16:14:10;2.57;;;1.10;;
20122;SDS011;10222;50.848;4.336;2022-10-16T16:16:38;0.73;;;0.60;;
20122;SDS011;10222;50.848;4.336;2022-10-16T16:19:04;3.03;;;0.77;;
20122;SDS011;10222;50.848;4.336;2022-10-16T16:21:32;1.53;;;0.70;;
20122;SDS011;10222;50.848;4.336;2022-10-16T16:23:59;0.60;;;0.50;;
20122;SDS011;10222;50.848;4.336;2022-10-16T16:26:28;2.63;;;0.90;;
20122;SDS011;10222;50.848;4.336;2022-10-16T16:29:01;1.37;;;0.70;;
20122;SDS011;10222;50.848;4.336;2022-10-16T16:31:27;3.37;;;0.90;;
20122;SDS011;10222;50.848;4.336;2022-10-16T16:33:54;1.73;;;0.50;;
20122;SDS011;10222;50.848;4.336;2022-10-16T16:36:21;1.70;;;0.70;;
20122;SDS011;10222;50.848;4.336;2022-10-16T16:38:47;2.40;;;0.90;;
20122;SDS011;10222;50.848;4.336;2022-10-16T16:41:14;1.40;;;0.57;;
20122;SDS011;10222;50.848;4.336;2022-10-16T16:43:40;1.30;;;0.93;;
20122;SDS011;10222;50.848;4.336;2022-10-16T16:46:06;1.73;;;0.60;;
20122;SDS011;10222;50.848;4.336;2022-10-16T16:48:32;1.27;;;0.80;;
20122;SDS011;10222;50.848;4.336;2022-10-16T16:51:05;1.97;;;0.97;;
20122;SDS011;10222;50.848;4.336;2022-10-16T16:53:33;2.80;;;1.10;;
20122;SDS011;10222;50.848;4.336;2022-10-16T16:56:03;2.00;;;0.80;;
20122;SDS011;10222;50.848;4.336;2022-10-16T16:58:29;1.67;;;0.80;;
20122;SDS011;10222;50.848;4.336;2022-10-16T17:00:56;2.87;;;0.87;;
20122;SDS011;10222;50.848;4.336;2022-10-16T17:03:25;1.97;;;1.20;;
20122;SDS011;10222;50.848;4.336;2022-10-16T17:05:55;4.53;;;2.50;;
20122;SDS011;10222;50.848;4.336;2022-10-16T17:08:21;4.50;;;2.77;;
20122;SDS011;10222;50.848;4.336;2022-10-16T17:10:47;7.00;;;2.57;;